Aviation Digital Data Service (ADDS)

Output produced by METARs form (0826 UTC 03 August 2021)
found at http://www.aviationweather.gov/metar/data/
 
METAR text: YCOM 030818Z AUTO 30015KT 300V360 9999 // SCT115 04/M00 Q1006
Conditions at: YCOM (COOMA SNOWY MTNS, AU) observed 0818 UTC 03 August 2021
Temperature: 4.0°C (39°F)
Dewpoint: 0.0°C (32°F) [RH = 75%]
Pressure (altimeter): 29.70 inches Hg (1006.0 mb)
Winds: from the WNW (300 degrees) at 17 MPH (15 knots; 7.7 m/s)
Visibility: 6 or more miles (10+ km)
Ceiling: at least 12,000 feet AGL
Clouds: scattered clouds at 11500 feet AGL
Weather: no significant weather observed at this time

METAR text: YCOM 030800Z AUTO 31004KT 290V350 9999 // SCT125 03/M01 Q1007
Conditions at: YCOM (COOMA SNOWY MTNS, AU) observed 0800 UTC 03 August 2021
Temperature: 3.0°C (37°F)
Dewpoint: -1.0°C (30°F) [RH = 75%]
Pressure (altimeter): 29.73 inches Hg (1007.0 mb)
Winds: from the NW (310 degrees) at 5 MPH (4 knots; 2.1 m/s)
Visibility: 6 or more miles (10+ km)
Ceiling: at least 12,000 feet AGL
Clouds: scattered clouds at 12500 feet AGL
Weather: no significant weather observed at this time